CYWL

Details ICAO CYWL (YWL)
Name WILLIAMS LAKE
Region Canada
Timezone America/Vancouver (UTC-7.0)
Plans Departing 4
Arriving 20
Stats Elevation 3,085 ft / 940 m (AMSL)
Location 52.182502° -122.053475°
Runways 1
Magnetic Variation 16.727° E
Sunrise 2018-05-26 12:00:13 UTC / 2018-05-26 05:00:13 Local
Sunset 2018-05-27 04:13:15 UTC / 2018-05-26 21:13:15 Local
Advertisement - Login to hide

Runways

ID Width Length Bearing (true) Bearing (mag) Surface Threshold Offset Overrun Length
11 150 ft / 46 m 6,913 ft / 2,107 m 134.72° 117.99° Asphalt 0 ft / 0 m 300 ft / 91 m
29 150 ft / 46 m 6,913 ft / 2,107 m 314.74° 298.01° Asphalt 0 ft / 0 m 300 ft / 91 m

Map

Weather


0- 5 10 15 20 25 30 35+ Temperature / ° C

Clouds and Precipitation
Forecast for 2018-05-26 06:00 UTC. Updated 3 hours ago

Ground ~20,000 ft ~40,000 ft Winds

METAR

CYWL 260800Z 26003KT 15SM FEW100 06/04 A2996 RMK AC1 SLP155

TAF

TAF CYWL 260639Z 2607/2619 32008KT P6SM FEW060 PROB40 2609/2616 1/2SM FG BKN003 BECMG 2612/2614 VRB03KT RMK NXT FCST BY 261300Z

Frequencies

Tower 122.30 MHz MF WILLIAMS LAKE RDO
Warning: Do not use this data for real-world aviation or navigation. No guarantee of current accuracy is given.